Time;durP1;ratioP1;P1;durP2;ratioP2;P2;SDS_P1;SDS_P2;PMS_P1;PMS_P2;Temp;Humidity;BMP_temperature;BMP_pressure;BME280_temperature;BME280_humidity;BME280_pressure;Samples;Min_cycle;Max_cycle;Signal;HPM_P1;HPM_P2
2022/01/02 00:01:01;;;;;;;6.10;4.83;;;;;;;;;;5096813;28;20519;-69
2022/01/02 00:03:31;;;;;;;5.80;4.70;;;;;;;;;;5096870;28;20511;-69
2022/01/02 00:06:01;;;;;;;6.60;5.57;;;;;;;;;;5096687;28;20459;-68
2022/01/02 00:08:31;;;;;;;4.87;4.40;;;;;;;;;;5096195;28;20530;-68
2022/01/02 00:10:59;;;;;;;6.07;5.00;;;;;;;;;;5096753;28;20546;-68
2022/01/02 00:13:31;;;;;;;4.97;4.47;;;;;;;;;;5096491;28;20534;-68
2022/01/02 00:16:05;;;;;;;6.73;4.30;;;;;;;;;;5096390;28;20787;-68
2022/01/02 00:18:34;;;;;;;4.77;4.37;;;;;;;;;;5096433;28;20429;-69
2022/01/02 00:21:06;;;;;;;7.10;4.33;;;;;;;;;;5096047;28;20435;-69
2022/01/02 00:23:52;;;;;;;3.90;3.57;;;;;;;;;;5096919;28;20493;-69
2022/01/02 00:26:19;;;;;;;6.60;3.90;;;;;;;;;;5096023;28;20463;-69
2022/01/02 00:28:48;;;;;;;4.70;3.50;;;;;;;;;;5096191;28;20436;-69
2022/01/02 00:31:16;;;;;;;4.73;3.90;;;;;;;;;;5095826;28;20446;-68
2022/01/02 00:33:44;;;;;;;10.00;4.60;;;;;;;;;;5096597;28;20457;-69
2022/01/02 00:36:11;;;;;;;5.73;4.27;;;;;;;;;;5095602;28;20491;-68
2022/01/02 00:38:39;;;;;;;4.97;3.97;;;;;;;;;;5095965;28;20482;-70
2022/01/02 00:41:07;;;;;;;8.10;4.53;;;;;;;;;;5095637;28;20440;-70
2022/01/02 00:43:39;;;;;;;6.47;3.90;;;;;;;;;;5095931;28;20851;-70
2022/01/02 00:46:08;;;;;;;7.30;4.30;;;;;;;;;;5096195;28;20520;-69
2022/01/02 00:48:36;;;;;;;3.63;3.33;;;;;;;;;;5095990;28;20873;-69
2022/01/02 00:51:04;;;;;;;4.40;3.70;;;;;;;;;;5095336;28;20533;-69
2022/01/02 00:53:34;;;;;;;5.80;4.27;;;;;;;;;;5096024;28;20466;-69
2022/01/02 00:56:02;;;;;;;7.43;3.70;;;;;;;;;;5096090;28;20562;-69
2022/01/02 00:58:32;;;;;;;4.67;3.97;;;;;;;;;;5096022;28;20524;-69
2022/01/02 01:01:01;;;;;;;4.77;3.90;;;;;;;;;;5096449;28;20510;-69
2022/01/02 01:03:31;;;;;;;8.53;4.53;;;;;;;;;;5095544;28;20475;-68
2022/01/02 01:06:03;;;;;;;7.13;3.93;;;;;;;;;;5095178;28;20473;-69
2022/01/02 01:08:32;;;;;;;5.37;4.60;;;;;;;;;;5096028;28;20487;-69
2022/01/02 01:11:00;;;;;;;6.60;4.37;;;;;;;;;;5094965;28;20471;-68
2022/01/02 01:13:27;;;;;;;6.13;3.77;;;;;;;;;;5095715;28;20437;-69
2022/01/02 01:15:55;;;;;;;5.10;4.10;;;;;;;;;;5094666;28;20999;-69
2022/01/02 01:18:23;;;;;;;4.80;3.73;;;;;;;;;;5095257;28;20436;-69
2022/01/02 01:20:53;;;;;;;6.03;4.10;;;;;;;;;;5095142;28;20522;-69
2022/01/02 01:23:20;;;;;;;5.70;5.10;;;;;;;;;;5095668;28;20436;-69
2022/01/02 01:25:49;;;;;;;4.67;3.70;;;;;;;;;;5094804;28;20485;-69
2022/01/02 01:28:18;;;;;;;6.50;3.83;;;;;;;;;;5094654;28;20475;-68
2022/01/02 01:30:48;;;;;;;5.97;5.37;;;;;;;;;;5094942;28;20493;-68
2022/01/02 01:33:15;;;;;;;4.40;3.93;;;;;;;;;;5094616;28;20474;-69
2022/01/02 01:35:42;;;;;;;4.43;4.13;;;;;;;;;;5095224;28;20582;-69
2022/01/02 01:38:11;;;;;;;5.73;3.80;;;;;;;;;;5094890;28;20838;-68
2022/01/02 01:40:41;;;;;;;6.17;4.10;;;;;;;;;;5095134;28;20518;-69
2022/01/02 01:43:12;;;;;;;4.27;3.87;;;;;;;;;;5094612;28;20484;-69
2022/01/02 01:45:40;;;;;;;5.13;4.20;;;;;;;;;;5094876;28;20494;-68
2022/01/02 01:48:08;;;;;;;4.60;4.20;;;;;;;;;;5094605;28;20467;-69
2022/01/02 01:50:37;;;;;;;4.27;3.97;;;;;;;;;;5094980;28;20495;-68
2022/01/02 01:53:04;;;;;;;4.33;3.73;;;;;;;;;;5094287;28;20454;-69
2022/01/02 01:55:33;;;;;;;5.00;3.80;;;;;;;;;;5094687;28;20566;-69
2022/01/02 01:58:01;;;;;;;5.47;3.70;;;;;;;;;;5094812;28;20441;-69
2022/01/02 02:00:28;;;;;;;4.43;4.03;;;;;;;;;;5094122;28;20447;-68
2022/01/02 02:02:56;;;;;;;8.03;3.70;;;;;;;;;;5093566;28;20484;-69
2022/01/02 02:05:23;;;;;;;4.13;3.73;;;;;;;;;;5094448;28;20915;-69
2022/01/02 02:07:51;;;;;;;3.50;3.20;;;;;;;;;;5094445;28;20470;-69
2022/01/02 02:10:23;;;;;;;4.43;3.73;;;;;;;;;;5093958;28;20446;-69
2022/01/02 02:12:53;;;;;;;3.90;3.53;;;;;;;;;;5093925;28;20450;-69
2022/01/02 02:15:21;;;;;;;5.37;4.20;;;;;;;;;;5094049;28;20563;-69
2022/01/02 02:17:50;;;;;;;9.77;3.97;;;;;;;;;;5094523;28;20568;-69
2022/01/02 02:20:19;;;;;;;7.90;3.83;;;;;;;;;;5094141;28;20840;-69
2022/01/02 02:22:49;;;;;;;3.77;3.37;;;;;;;;;;5094042;28;20634;-69
2022/01/02 02:25:17;;;;;;;6.27;3.70;;;;;;;;;;5094546;28;20440;-69
2022/01/02 02:27:51;;;;;;;4.30;3.90;;;;;;;;;;5093608;28;20530;-69
2022/01/02 02:30:19;;;;;;;3.80;3.50;;;;;;;;;;5093598;28;20528;-68
2022/01/02 02:32:46;;;;;;;4.87;3.20;;;;;;;;;;5093591;28;20531;-69
2022/01/02 02:35:13;;;;;;;4.93;4.47;;;;;;;;;;5093786;28;20586;-69
2022/01/02 02:37:44;;;;;;;5.03;3.90;;;;;;;;;;5093799;28;20526;-68
2022/01/02 02:40:11;;;;;;;5.40;3.43;;;;;;;;;;5094202;28;20455;-68
2022/01/02 02:42:46;;;;;;;9.63;3.17;;;;;;;;;;5093977;28;20621;-69
2022/01/02 02:50:48;;;;;;;5.97;3.57;;;;;;;;;;5093482;28;20408;-68
2022/01/02 02:53:17;;;;;;;4.20;3.70;;;;;;;;;;5093609;28;20547;-68
2022/01/02 02:55:47;;;;;;;4.43;4.03;;;;;;;;;;5093187;28;20510;-68
2022/01/02 03:00:59;;;;;;;6.40;3.40;;;;;;;;;;5093378;28;20403;-68
2022/01/02 03:03:26;;;;;;;6.50;4.10;;;;;;;;;;5093522;28;20539;-68
2022/01/02 03:05:54;;;;;;;5.43;3.80;;;;;;;;;;5093231;28;20482;-68
2022/01/02 03:08:22;;;;;;;7.03;4.10;;;;;;;;;;5093490;28;20526;-69
2022/01/02 03:10:49;;;;;;;5.00;3.17;;;;;;;;;;5093480;28;20432;-68
2022/01/02 03:13:17;;;;;;;4.97;3.53;;;;;;;;;;5093339;28;20448;-68
2022/01/02 03:15:44;;;;;;;5.03;4.17;;;;;;;;;;5096549;28;21004;-68
2022/01/02 03:18:11;;;;;;;6.13;4.40;;;;;;;;;;5097656;28;20559;-68
2022/01/02 03:20:38;;;;;;;5.53;4.10;;;;;;;;;;5097229;28;20478;-68
2022/01/02 03:23:06;;;;;;;4.10;3.70;;;;;;;;;;5097179;28;20522;-68
2022/01/02 03:25:34;;;;;;;5.60;4.33;;;;;;;;;;5097439;28;20498;-68
2022/01/02 03:28:01;;;;;;;7.70;4.60;;;;;;;;;;5097429;28;20520;-68
2022/01/02 03:30:29;;;;;;;14.50;5.23;;;;;;;;;;5097012;28;20526;-68
2022/01/02 03:32:56;;;;;;;5.37;4.00;;;;;;;;;;5097256;28;20538;-68
2022/01/02 03:35:23;;;;;;;7.90;4.40;;;;;;;;;;5096839;28;20475;-68
2022/01/02 03:37:51;;;;;;;7.50;5.13;;;;;;;;;;5097218;28;20471;-68
2022/01/02 03:40:18;;;;;;;10.47;4.10;;;;;;;;;;5097545;28;20447;-68
2022/01/02 03:42:47;;;;;;;6.30;4.40;;;;;;;;;;5096669;28;20526;-69
2022/01/02 03:45:14;;;;;;;10.00;5.30;;;;;;;;;;5097146;28;20540;-68
2022/01/02 03:47:41;;;;;;;10.40;4.73;;;;;;;;;;5097010;28;20873;-68
2022/01/02 03:50:09;;;;;;;5.60;4.73;;;;;;;;;;5097413;28;20528;-68
2022/01/02 03:52:36;;;;;;;5.50;4.10;;;;;;;;;;5096551;28;20436;-68
2022/01/02 03:55:04;;;;;;;9.97;5.00;;;;;;;;;;5096753;28;20551;-68
2022/01/02 03:57:31;;;;;;;6.13;4.50;;;;;;;;;;5097108;28;20809;-68
2022/01/02 04:00:00;;;;;;;7.87;4.60;;;;;;;;;;5096714;28;20533;-68
2022/01/02 04:02:27;;;;;;;7.00;4.43;;;;;;;;;;5096402;28;20534;-68
2022/01/02 04:04:54;;;;;;;10.10;4.90;;;;;;;;;;5096377;28;20602;-69
2022/01/02 04:07:22;;;;;;;7.93;5.47;;;;;;;;;;5096336;28;20448;-68
2022/01/02 04:09:51;;;;;;;8.33;4.67;;;;;;;;;;5097118;28;20787;-68
2022/01/02 04:12:18;;;;;;;6.50;4.97;;;;;;;;;;5096514;28;20479;-68
2022/01/02 04:14:45;;;;;;;7.13;5.60;;;;;;;;;;5097004;28;20456;-68
2022/01/02 04:17:14;;;;;;;7.30;4.50;;;;;;;;;;5096281;28;20574;-68
2022/01/02 04:19:41;;;;;;;7.63;5.70;;;;;;;;;;5096908;28;20439;-69
2022/01/02 04:22:08;;;;;;;7.60;4.60;;;;;;;;;;5096477;28;20881;-68
2022/01/02 04:24:36;;;;;;;8.27;5.30;;;;;;;;;;5096585;28;20532;-69
2022/01/02 04:27:03;;;;;;;8.50;5.00;;;;;;;;;;5095790;28;20526;-68
2022/01/02 04:29:30;;;;;;;11.60;5.00;;;;;;;;;;5096206;28;20449;-68
2022/01/02 04:31:57;;;;;;;17.03;5.23;;;;;;;;;;5096911;28;20527;-68
2022/01/02 04:34:26;;;;;;;7.47;5.10;;;;;;;;;;5095799;28;20454;-68
2022/01/02 04:36:53;;;;;;;13.00;6.27;;;;;;;;;;5095654;28;20568;-69
2022/01/02 04:39:20;;;;;;;13.17;6.10;;;;;;;;;;5095881;28;20475;-69
2022/01/02 04:41:48;;;;;;;14.00;6.50;;;;;;;;;;5096487;28;20522;-68
2022/01/02 04:44:15;;;;;;;10.57;5.90;;;;;;;;;;5096519;28;20451;-68
2022/01/02 04:46:42;;;;;;;9.80;6.33;;;;;;;;;;5095890;28;20888;-68
2022/01/02 04:49:09;;;;;;;6.90;5.40;;;;;;;;;;5096169;28;20995;-68
2022/01/02 04:51:38;;;;;;;7.80;5.70;;;;;;;;;;5095385;28;20437;-69
2022/01/02 04:54:05;;;;;;;9.90;5.57;;;;;;;;;;5095377;28;20523;-68
2022/01/02 04:56:32;;;;;;;10.50;5.47;;;;;;;;;;5095666;28;20562;-69
2022/01/02 04:58:59;;;;;;;9.93;5.70;;;;;;;;;;5096089;28;20516;-68
2022/01/02 05:01:27;;;;;;;12.37;6.20;;;;;;;;;;5095639;28;20439;-69
2022/01/02 05:03:54;;;;;;;8.10;5.70;;;;;;;;;;5095264;28;20448;-68
2022/01/02 05:06:21;;;;;;;9.70;5.13;;;;;;;;;;5095609;28;20532;-69
2022/01/02 05:08:50;;;;;;;12.40;4.83;;;;;;;;;;5095728;28;20520;-69
2022/01/02 05:11:17;;;;;;;8.07;5.57;;;;;;;;;;5095437;28;20441;-67
2022/01/02 05:13:45;;;;;;;8.80;5.57;;;;;;;;;;5094805;28;21064;-67
2022/01/02 05:16:12;;;;;;;8.27;5.97;;;;;;;;;;5095059;28;20485;-67
2022/01/02 05:18:39;;;;;;;9.10;4.80;;;;;;;;;;5095344;28;20474;-67
2022/01/02 05:21:06;;;;;;;9.73;4.93;;;;;;;;;;5095181;28;20477;-67
2022/01/02 05:23:34;;;;;;;6.90;4.87;;;;;;;;;;5094781;28;21006;-67
2022/01/02 05:26:02;;;;;;;12.83;5.27;;;;;;;;;;5094458;28;20532;-67
2022/01/02 05:28:29;;;;;;;7.47;5.00;;;;;;;;;;5094656;28;20435;-67
2022/01/02 05:30:57;;;;;;;8.40;4.67;;;;;;;;;;5095220;28;20448;-68
2022/01/02 05:33:24;;;;;;;15.57;5.90;;;;;;;;;;5094958;28;20837;-67
2022/01/02 05:35:52;;;;;;;12.40;5.50;;;;;;;;;;5094917;28;20569;-68
2022/01/02 05:38:20;;;;;;;7.83;4.83;;;;;;;;;;5094014;28;20530;-67
2022/01/02 05:40:49;;;;;;;7.10;4.67;;;;;;;;;;5094438;28;20444;-68
2022/01/02 05:43:18;;;;;;;16.83;5.63;;;;;;;;;;5094297;28;20540;-67
2022/01/02 05:45:45;;;;;;;10.47;5.87;;;;;;;;;;5094418;28;20535;-67
2022/01/02 05:48:12;;;;;;;6.80;4.57;;;;;;;;;;5094858;28;20474;-67
2022/01/02 05:50:40;;;;;;;7.90;5.90;;;;;;;;;;5094322;28;20442;-68
2022/01/02 05:53:07;;;;;;;11.00;4.90;;;;;;;;;;5094832;28;20527;-67
2022/01/02 05:55:34;;;;;;;9.60;4.73;;;;;;;;;;5094372;28;20532;-67
2022/01/02 05:58:01;;;;;;;8.50;4.80;;;;;;;;;;5094462;28;20949;-67
2022/01/02 06:00:30;;;;;;;10.83;4.60;;;;;;;;;;5094429;28;20534;-67
2022/01/02 06:02:57;;;;;;;6.77;4.90;;;;;;;;;;5094319;28;20514;-68
2022/01/02 06:05:24;;;;;;;8.83;5.33;;;;;;;;;;5094142;28;20528;-67
2022/01/02 06:07:51;;;;;;;10.50;4.80;;;;;;;;;;5094238;28;20498;-68
2022/01/02 06:10:19;;;;;;;6.47;4.30;;;;;;;;;;5093958;28;20531;-68
2022/01/02 06:12:46;;;;;;;9.40;4.97;;;;;;;;;;5093788;28;20526;-67
2022/01/02 06:15:13;;;;;;;10.47;4.90;;;;;;;;;;5094089;28;20490;-67
2022/01/02 06:17:42;;;;;;;7.50;5.13;;;;;;;;;;5093817;28;20492;-67
2022/01/02 06:20:09;;;;;;;10.43;4.80;;;;;;;;;;5093894;28;20480;-67
2022/01/02 06:22:37;;;;;;;8.47;4.90;;;;;;;;;;5093875;28;20526;-67
2022/01/02 06:25:04;;;;;;;11.40;5.10;;;;;;;;;;5093567;28;20538;-67
2022/01/02 06:27:31;;;;;;;8.73;6.07;;;;;;;;;;5093382;28;20539;-67
2022/01/02 06:29:59;;;;;;;17.30;5.90;;;;;;;;;;5094272;28;20522;-67
2022/01/02 06:32:26;;;;;;;11.77;5.03;;;;;;;;;;5093769;28;20527;-67
2022/01/02 06:34:54;;;;;;;6.27;5.30;;;;;;;;;;5093764;28;20480;-67
2022/01/02 06:37:22;;;;;;;8.10;4.90;;;;;;;;;;5093727;28;20557;-68
2022/01/02 06:39:49;;;;;;;10.87;4.80;;;;;;;;;;5093239;28;20533;-68
2022/01/02 06:42:16;;;;;;;10.83;5.90;;;;;;;;;;5093323;28;20525;-67
2022/01/02 06:44:43;;;;;;;12.10;5.53;;;;;;;;;;5093772;28;20490;-67
2022/01/02 06:47:11;;;;;;;10.43;6.23;;;;;;;;;;5093897;28;20446;-67
2022/01/02 06:49:38;;;;;;;9.50;5.00;;;;;;;;;;5093185;28;20535;-67
2022/01/02 06:52:07;;;;;;;14.17;5.83;;;;;;;;;;5094244;28;20873;-67
2022/01/02 06:54:34;;;;;;;8.20;5.80;;;;;;;;;;5093585;28;20920;-67
2022/01/02 06:57:01;;;;;;;9.50;4.97;;;;;;;;;;5093565;28;20578;-67
2022/01/02 06:59:30;;;;;;;8.53;4.97;;;;;;;;;;5093297;28;20483;-67
2022/01/02 07:01:58;;;;;;;5.80;5.07;;;;;;;;;;5093232;28;20455;-67
2022/01/02 07:04:25;;;;;;;13.50;5.27;;;;;;;;;;5093251;28;20529;-67
2022/01/02 07:06:52;;;;;;;10.20;5.53;;;;;;;;;;5093480;28;20528;-67
2022/01/02 07:09:21;;;;;;;12.87;5.40;;;;;;;;;;5094068;28;20473;-67
2022/01/02 07:11:48;;;;;;;18.53;5.30;;;;;;;;;;5093409;28;20515;-67
2022/01/02 07:14:15;;;;;;;12.90;5.13;;;;;;;;;;5092985;28;20448;-67
2022/01/02 07:16:42;;;;;;;12.53;5.87;;;;;;;;;;5093213;28;20929;-67
2022/01/02 07:19:10;;;;;;;8.00;5.60;;;;;;;;;;5093188;28;20502;-67
2022/01/02 07:21:37;;;;;;;9.63;5.53;;;;;;;;;;5093281;28;20810;-67
2022/01/02 07:24:04;;;;;;;15.90;7.00;;;;;;;;;;5093008;28;20440;-67
2022/01/02 07:26:33;;;;;;;16.20;5.60;;;;;;;;;;5093219;28;20527;-67
2022/01/02 07:29:00;;;;;;;14.23;6.47;;;;;;;;;;5093224;28;20478;-67
2022/01/02 07:31:27;;;;;;;8.23;5.40;;;;;;;;;;5093362;28;21006;-67
2022/01/02 07:33:55;;;;;;;12.00;5.07;;;;;;;;;;5093225;28;20522;-67
2022/01/02 07:36:22;;;;;;;17.17;7.23;;;;;;;;;;5093264;28;21055;-67
2022/01/02 07:38:49;;;;;;;7.93;4.70;;;;;;;;;;5092869;28;20478;-67
2022/01/02 07:41:16;;;;;;;11.40;5.20;;;;;;;;;;5093339;28;20804;-67
2022/01/02 07:43:45;;;;;;;9.87;5.13;;;;;;;;;;5092906;28;20450;-67
2022/01/02 07:46:12;;;;;;;11.43;6.10;;;;;;;;;;5093281;28;20472;-67
2022/01/02 07:48:39;;;;;;;12.60;5.17;;;;;;;;;;5092830;28;20528;-67
2022/01/02 07:51:07;;;;;;;13.67;6.30;;;;;;;;;;5093007;28;20516;-67
2022/01/02 07:53:34;;;;;;;11.53;5.63;;;;;;;;;;5093287;28;20521;-67
2022/01/02 07:56:01;;;;;;;7.83;5.40;;;;;;;;;;5093360;28;20870;-67
2022/01/02 07:58:29;;;;;;;15.17;6.30;;;;;;;;;;5092948;28;20570;-67
2022/01/02 08:00:57;;;;;;;6.90;5.13;;;;;;;;;;5094542;28;20432;-67
2022/01/02 08:03:25;;;;;;;9.70;5.70;;;;;;;;;;5096885;28;20439;-67
2022/01/02 08:05:52;;;;;;;9.43;5.73;;;;;;;;;;5096898;28;20533;-67
2022/01/02 08:08:19;;;;;;;14.40;5.90;;;;;;;;;;5096196;28;20978;-67
2022/01/02 08:10:46;;;;;;;13.60;6.40;;;;;;;;;;5096877;28;20445;-66
2022/01/02 08:13:13;;;;;;;9.93;6.47;;;;;;;;;;5096612;28;21022;-67
2022/01/02 08:15:41;;;;;;;17.87;7.37;;;;;;;;;;5096808;28;20442;-67
2022/01/02 08:18:13;;;;;;;12.30;5.60;;;;;;;;;;5096953;28;20844;-67
2022/01/02 08:20:40;;;;;;;12.73;6.60;;;;;;;;;;5096113;28;20467;-68
2022/01/02 08:23:07;;;;;;;10.20;5.80;;;;;;;;;;5096145;28;20497;-68
2022/01/02 08:25:35;;;;;;;11.50;4.97;;;;;;;;;;5096713;28;20534;-67
2022/01/02 08:28:02;;;;;;;9.80;5.30;;;;;;;;;;5096112;28;20448;-67
2022/01/02 08:30:29;;;;;;;7.20;5.60;;;;;;;;;;5096073;28;20475;-67
2022/01/02 08:32:56;;;;;;;11.00;4.90;;;;;;;;;;5095985;28;20439;-67
2022/01/02 08:35:25;;;;;;;8.97;5.20;;;;;;;;;;5096148;28;20779;-67
2022/01/02 08:37:52;;;;;;;10.87;5.30;;;;;;;;;;5095693;28;21061;-67
2022/01/02 08:40:20;;;;;;;10.03;4.37;;;;;;;;;;5095660;28;20530;-67
2022/01/02 08:42:47;;;;;;;11.23;7.90;;;;;;;;;;5095728;28;20519;-67
2022/01/02 08:45:14;;;;;;;15.03;5.50;;;;;;;;;;5095573;28;20435;-67
2022/01/02 08:47:41;;;;;;;9.33;5.47;;;;;;;;;;5096398;28;20546;-67
2022/01/02 08:50:09;;;;;;;6.03;4.67;;;;;;;;;;5095390;28;20980;-68
2022/01/02 08:52:37;;;;;;;8.03;5.30;;;;;;;;;;5095435;28;21024;-68
2022/01/02 08:55:05;;;;;;;10.83;4.83;;;;;;;;;;5095415;28;20594;-68
2022/01/02 08:57:32;;;;;;;8.80;4.30;;;;;;;;;;5095552;28;20475;-68
2022/01/02 09:00:00;;;;;;;8.37;4.07;;;;;;;;;;5095353;28;20428;-68
2022/01/02 09:02:27;;;;;;;11.60;4.60;;;;;;;;;;5096046;28;20531;-68
2022/01/02 09:04:54;;;;;;;9.70;4.23;;;;;;;;;;5095525;28;20468;-68
2022/01/02 09:07:21;;;;;;;12.73;5.40;;;;;;;;;;5095158;28;20535;-68
2022/01/02 09:09:50;;;;;;;5.53;3.70;;;;;;;;;;5095427;28;20581;-67
2022/01/02 09:12:17;;;;;;;9.03;4.20;;;;;;;;;;5094501;28;20873;-67
2022/01/02 09:14:45;;;;;;;10.23;4.90;;;;;;;;;;5095286;28;20455;-67
2022/01/02 09:17:12;;;;;;;9.30;5.43;;;;;;;;;;5095072;28;21060;-67
2022/01/02 09:19:39;;;;;;;9.87;4.13;;;;;;;;;;5095209;28;20446;-68
2022/01/02 09:22:07;;;;;;;9.60;3.80;;;;;;;;;;5094936;28;20471;-68
2022/01/02 09:24:34;;;;;;;11.33;4.40;;;;;;;;;;5095607;28;20852;-68
2022/01/02 09:27:02;;;;;;;8.03;3.90;;;;;;;;;;5094936;28;20972;-68
2022/01/02 09:29:30;;;;;;;22.53;4.43;;;;;;;;;;5094585;28;20448;-67
2022/01/02 09:31:58;;;;;;;8.03;4.03;;;;;;;;;;5095094;28;20435;-67
2022/01/02 09:34:25;;;;;;;16.17;4.40;;;;;;;;;;5094671;28;20527;-67
2022/01/02 09:36:52;;;;;;;5.73;3.17;;;;;;;;;;5094507;28;21026;-68
2022/01/02 09:39:19;;;;;;;7.47;3.77;;;;;;;;;;5094402;28;20438;-68
2022/01/02 09:41:47;;;;;;;10.13;4.50;;;;;;;;;;5094725;28;20537;-68
2022/01/02 09:44:15;;;;;;;7.80;3.93;;;;;;;;;;5094597;28;20536;-67
2022/01/02 09:46:43;;;;;;;4.57;3.47;;;;;;;;;;5094703;28;20534;-67
2022/01/02 09:49:11;;;;;;;5.23;3.47;;;;;;;;;;5094596;28;20481;-67
2022/01/02 09:51:38;;;;;;;6.57;4.97;;;;;;;;;;5094493;28;20525;-67
2022/01/02 09:54:05;;;;;;;5.03;3.73;;;;;;;;;;5094937;28;20479;-67
2022/01/02 09:56:32;;;;;;;9.50;3.37;;;;;;;;;;5094445;28;20448;-67
2022/01/02 09:59:02;;;;;;;10.20;3.57;;;;;;;;;;5094260;28;20568;-68
2022/01/02 10:01:32;;;;;;;6.40;3.80;;;;;;;;;;5094306;28;20455;-67
2022/01/02 10:04:00;;;;;;;4.13;3.43;;;;;;;;;;5094077;28;20511;-67
2022/01/02 10:06:39;;;;;;;5.60;4.20;;;;;;;;;;5094308;28;20476;-67
2022/01/02 10:09:06;;;;;;;6.20;3.70;;;;;;;;;;5093966;28;20920;-67
2022/01/02 10:11:35;;;;;;;6.70;3.80;;;;;;;;;;5094743;28;20548;-67
2022/01/02 10:14:04;;;;;;;3.53;2.93;;;;;;;;;;5094490;28;20498;-68
2022/01/02 10:16:33;;;;;;;6.70;3.87;;;;;;;;;;5093866;28;20515;-67
2022/01/02 10:19:01;;;;;;;4.70;3.50;;;;;;;;;;5094363;28;20506;-68
2022/01/02 10:21:33;;;;;;;5.40;3.33;;;;;;;;;;5094085;28;20491;-68
2022/01/02 10:24:17;;;;;;;4.23;3.00;;;;;;;;;;5094417;28;20830;-67
2022/01/02 10:27:05;;;;;;;7.40;3.87;;;;;;;;;;5093758;28;20960;-67
2022/01/02 10:29:40;;;;;;;6.70;3.60;;;;;;;;;;5094111;28;20515;-67
2022/01/02 10:32:22;;;;;;;4.80;3.40;;;;;;;;;;5093531;28;20520;-67
2022/01/02 10:34:51;;;;;;;4.30;2.97;;;;;;;;;;5093534;28;20459;-66
2022/01/02 10:37:24;;;;;;;8.57;4.90;;;;;;;;;;5092986;28;20515;-67
2022/01/02 10:39:51;;;;;;;8.13;3.90;;;;;;;;;;5093130;28;20904;-67
2022/01/02 10:42:19;;;;;;;10.53;3.97;;;;;;;;;;5093273;28;20523;-67
2022/01/02 10:44:46;;;;;;;3.83;3.43;;;;;;;;;;5093603;28;20463;-67
2022/01/02 10:47:15;;;;;;;9.23;3.70;;;;;;;;;;5094050;28;20431;-67
2022/01/02 10:50:03;;;;;;;5.87;3.57;;;;;;;;;;5092869;28;20432;-67
2022/01/02 10:52:32;;;;;;;8.00;4.00;;;;;;;;;;5092952;28;20432;-67
2022/01/02 10:55:00;;;;;;;8.43;4.50;;;;;;;;;;5093118;28;20525;-67
2022/01/02 10:57:28;;;;;;;8.43;3.63;;;;;;;;;;5092793;28;20475;-67
2022/01/02 10:59:57;;;;;;;8.27;4.63;;;;;;;;;;5093161;28;20868;-67
2022/01/02 11:02:25;;;;;;;6.83;4.17;;;;;;;;;;5092910;28;20516;-67
2022/01/02 11:04:56;;;;;;;6.20;3.50;;;;;;;;;;5092803;28;20472;-66
2022/01/02 11:07:25;;;;;;;13.00;3.83;;;;;;;;;;5093065;28;20464;-71
2022/01/02 11:09:53;;;;;;;5.00;3.47;;;;;;;;;;5093177;28;20468;-67
2022/01/02 11:12:21;;;;;;;3.30;3.00;;;;;;;;;;5093716;28;20475;-67
2022/01/02 11:14:49;;;;;;;7.53;3.70;;;;;;;;;;5093154;28;20497;-67
2022/01/02 11:17:16;;;;;;;3.60;3.30;;;;;;;;;;5092671;28;20830;-68
2022/01/02 11:19:44;;;;;;;3.30;3.00;;;;;;;;;;5092835;28;20446;-67
2022/01/02 11:22:12;;;;;;;5.40;3.83;;;;;;;;;;5091918;28;20472;-67
2022/01/02 11:24:46;;;;;;;5.50;3.80;;;;;;;;;;5092827;28;20519;-67
2022/01/02 11:27:17;;;;;;;3.50;3.20;;;;;;;;;;5092598;28;20511;-68
2022/01/02 11:29:44;;;;;;;4.60;3.47;;;;;;;;;;5092947;28;20514;-67
2022/01/02 11:32:22;;;;;;;4.13;3.50;;;;;;;;;;5092478;28;20448;-67
2022/01/02 11:34:49;;;;;;;4.60;3.60;;;;;;;;;;5092636;28;20520;-67
2022/01/02 11:37:20;;;;;;;4.07;3.33;;;;;;;;;;5096489;28;20493;-68
2022/01/02 11:39:57;;;;;;;4.93;3.80;;;;;;;;;;5096190;28;20895;-67
2022/01/02 11:42:40;;;;;;;4.23;3.73;;;;;;;;;;5096540;28;20443;-68
2022/01/02 11:45:08;;;;;;;6.07;3.47;;;;;;;;;;5095925;28;20505;-68
2022/01/02 11:47:41;;;;;;;3.83;3.40;;;;;;;;;;5096116;28;20479;-67
2022/01/02 11:50:25;;;;;;;4.93;4.00;;;;;;;;;;5096050;28;20444;-67
2022/01/02 11:53:07;;;;;;;5.20;3.97;;;;;;;;;;5096706;28;20801;-68
2022/01/02 11:55:35;;;;;;;3.73;3.43;;;;;;;;;;5095961;28;20551;-67
2022/01/02 11:58:02;;;;;;;9.13;4.20;;;;;;;;;;5096083;28;20951;-67
2022/01/02 12:00:45;;;;;;;4.33;3.40;;;;;;;;;;5096285;28;20932;-67
2022/01/02 12:03:30;;;;;;;4.73;4.23;;;;;;;;;;5093756;28;20471;-68
2022/01/02 12:06:22;;;;;;;7.23;3.93;;;;;;;;;;5095846;28;20531;-67
2022/01/02 12:08:49;;;;;;;5.20;3.50;;;;;;;;;;5076688;28;20440;-68
2022/01/02 12:11:43;;;;;;;5.60;4.00;;;;;;;;;;5095963;28;20463;-68
2022/01/02 12:14:13;;;;;;;7.37;3.70;;;;;;;;;;5048343;28;20912;-68
2022/01/02 12:16:40;;;;;;;4.93;3.83;;;;;;;;;;5096036;28;20549;-69
2022/01/02 12:19:14;;;;;;;9.80;3.50;;;;;;;;;;5095676;28;20570;-69
2022/01/02 12:22:01;;;;;;;10.57;3.23;;;;;;;;;;5096090;28;20499;-69
2022/01/02 12:24:31;;;;;;;4.03;3.50;;;;;;;;;;5095560;28;20448;-68
2022/01/02 12:27:08;;;;;;;6.20;3.20;;;;;;;;;;5095908;28;20517;-68
2022/01/02 12:29:41;;;;;;;4.83;3.63;;;;;;;;;;5096012;28;20554;-68
2022/01/02 12:32:10;;;;;;;5.13;3.40;;;;;;;;;;5095777;28;20451;-68
2022/01/02 12:34:40;;;;;;;4.97;3.90;;;;;;;;;;5095930;28;20470;-68
2022/01/02 12:37:07;;;;;;;4.40;4.00;;;;;;;;;;5095951;28;20455;-68
2022/01/02 12:39:37;;;;;;;4.70;4.30;;;;;;;;;;5095855;28;20569;-68
2022/01/02 12:42:06;;;;;;;7.50;4.30;;;;;;;;;;5096414;28;20877;-68
2022/01/02 12:44:34;;;;;;;4.30;3.50;;;;;;;;;;5096036;28;20456;-67
2022/01/02 12:47:06;;;;;;;6.80;5.03;;;;;;;;;;5095141;28;20483;-68
2022/01/02 12:49:36;;;;;;;4.07;3.70;;;;;;;;;;5095983;28;20791;-67
2022/01/02 12:52:05;;;;;;;5.20;3.53;;;;;;;;;;5095545;28;20551;-67
2022/01/02 12:54:33;;;;;;;4.27;3.87;;;;;;;;;;5095643;28;20540;-67
2022/01/02 12:57:02;;;;;;;5.93;4.70;;;;;;;;;;5095921;28;20471;-67
2022/01/02 12:59:31;;;;;;;6.63;4.87;;;;;;;;;;5094974;28;20537;-68
2022/01/02 13:02:00;;;;;;;6.67;4.87;;;;;;;;;;5095440;28;20877;-68
2022/01/02 13:04:29;;;;;;;4.67;4.03;;;;;;;;;;5095250;28;20489;-68
2022/01/02 13:06:58;;;;;;;7.53;2.90;;;;;;;;;;5095656;28;20539;-68
2022/01/02 13:09:29;;;;;;;8.00;4.03;;;;;;;;;;5094828;28;20495;-68
2022/01/02 13:11:57;;;;;;;4.57;3.80;;;;;;;;;;5095350;28;20481;-68
2022/01/02 13:14:35;;;;;;;11.00;3.83;;;;;;;;;;5094811;28;20535;-67
2022/01/02 13:17:02;;;;;;;6.43;3.87;;;;;;;;;;5095264;28;20888;-68
2022/01/02 13:19:31;;;;;;;7.63;3.50;;;;;;;;;;5094949;28;20484;-68
2022/01/02 13:21:58;;;;;;;4.10;3.70;;;;;;;;;;5095359;28;20436;-67
2022/01/02 13:24:27;;;;;;;7.80;3.10;;;;;;;;;;5094739;28;20472;-67
2022/01/02 13:26:54;;;;;;;5.20;4.10;;;;;;;;;;5094591;28;20519;-67
2022/01/02 13:29:23;;;;;;;5.93;4.10;;;;;;;;;;5095171;28;20479;-67
2022/01/02 13:31:50;;;;;;;6.93;3.30;;;;;;;;;;5095691;28;20463;-67
2022/01/02 13:34:24;;;;;;;3.83;3.47;;;;;;;;;;5094629;28;20451;-70
2022/01/02 13:36:57;;;;;;;3.33;2.90;;;;;;;;;;5094343;28;20528;-69
2022/01/02 13:39:39;;;;;;;6.33;3.17;;;;;;;;;;5094544;28;20567;-67
2022/01/02 13:42:06;;;;;;;4.50;3.03;;;;;;;;;;5094353;28;20432;-70
2022/01/02 13:44:37;;;;;;;5.60;3.30;;;;;;;;;;5094190;28;20489;-66
2022/01/02 13:47:04;;;;;;;6.40;3.77;;;;;;;;;;5094530;28;20482;-66
2022/01/02 13:49:45;;;;;;;10.80;4.73;;;;;;;;;;5093722;28;20481;-67
2022/01/02 13:52:14;;;;;;;4.83;4.10;;;;;;;;;;5094601;28;20528;-68
2022/01/02 13:54:41;;;;;;;3.80;3.50;;;;;;;;;;5094077;28;20529;-68
2022/01/02 13:57:10;;;;;;;4.83;3.63;;;;;;;;;;5094024;28;20509;-68
2022/01/02 13:59:37;;;;;;;6.67;3.80;;;;;;;;;;5093639;28;20526;-68
2022/01/02 14:02:05;;;;;;;10.93;3.93;;;;;;;;;;5094006;28;20452;-69
2022/01/02 14:04:47;;;;;;;7.27;3.87;;;;;;;;;;5093839;28;20479;-68
2022/01/02 14:07:15;;;;;;;5.17;4.03;;;;;;;;;;5093716;28;20444;-67
2022/01/02 14:09:50;;;;;;;4.90;3.20;;;;;;;;;;5093980;28;20483;-68
2022/01/02 14:12:20;;;;;;;3.67;3.17;;;;;;;;;;5093148;28;20464;-67
2022/01/02 14:14:50;;;;;;;3.40;3.10;;;;;;;;;;5094119;28;20531;-68
2022/01/02 14:17:31;;;;;;;7.23;3.50;;;;;;;;;;5093703;28;20563;-68
2022/01/02 14:19:58;;;;;;;4.47;3.33;;;;;;;;;;5093995;28;20475;-68
2022/01/02 14:22:27;;;;;;;6.70;3.97;;;;;;;;;;5093469;28;20484;-68
2022/01/02 14:24:56;;;;;;;4.77;3.53;;;;;;;;;;5093408;28;20438;-68
2022/01/02 14:27:24;;;;;;;7.73;4.00;;;;;;;;;;5093873;28;20611;-68
2022/01/02 14:29:52;;;;;;;7.73;3.37;;;;;;;;;;5093809;28;20513;-68
2022/01/02 14:32:19;;;;;;;6.50;4.00;;;;;;;;;;5093407;28;20479;-68
2022/01/02 14:34:47;;;;;;;6.40;3.80;;;;;;;;;;5094079;28;20928;-67
2022/01/02 14:37:15;;;;;;;7.63;4.13;;;;;;;;;;5093752;28;20827;-67
2022/01/02 14:39:44;;;;;;;17.17;4.30;;;;;;;;;;5093405;28;20513;-68
2022/01/02 14:42:12;;;;;;;13.33;5.27;;;;;;;;;;5093800;28;20532;-67
2022/01/02 14:44:39;;;;;;;5.93;3.50;;;;;;;;;;5094018;28;20540;-67
2022/01/02 14:47:07;;;;;;;5.50;3.80;;;;;;;;;;5093208;28;20455;-67
2022/01/02 14:49:35;;;;;;;5.00;4.20;;;;;;;;;;5093559;28;20532;-67
2022/01/02 14:52:02;;;;;;;11.17;5.63;;;;;;;;;;5093126;28;20526;-67
2022/01/02 14:54:30;;;;;;;5.90;4.60;;;;;;;;;;5093593;28;20523;-68
2022/01/02 14:57:01;;;;;;;9.37;3.57;;;;;;;;;;5093353;28;20453;-67
2022/01/02 14:59:28;;;;;;;6.30;4.63;;;;;;;;;;5093022;28;20524;-67